Patensie, South Africa

11:11 AM SAST on July 23, 2016 (GMT +0200)
Wavecrest | | Change Station

Elev 236 ft 34.03 °S, 24.92 °E | Updated 9 seconds ago

Light Rain Showers
Light Showers Rain
58.8 °F
Feels Like 58.8 °F
N
8.7
Wind Variable Wind from WSW
Gusts 9.8 mph

Today
High -- | Low -- °F
--% Chance of Precip.
Yesterday
High -- | Low -- °F
Precip. -- in
Pressure 30.24 in
Visibility 4.3 miles
Clouds Few 1400 ft
Scattered Clouds 3000 ft
Mostly Cloudy 4200 ft
Dew Point 56 °F
Humidity 92%
Rainfall 0.04 in
Snow Depth Not available.
7:19 AM 5:35 PM
Waning Gibbous, 86% visible
METAR FAPE 230900Z 28014KT 7000 -SHRA FEW014 SCT030 BKN042TCU 11/07 Q1024 TEMPO 5000
Pressure 30.24 in
Visibility 4.3 miles
Clouds Few 1400 ft
Scattered Clouds 3000 ft
Mostly Cloudy 4200 ft
Dew Point 56 °F
Humidity 92%
Rainfall 0.04 in
Snow Depth Not available.
7:19 AM 5:35 PM
Waning Gibbous, 86% visible
METAR FAPE 230900Z 28014KT 7000 -SHRA FEW014 SCT030 BKN042TCU 11/07 Q1024 TEMPO 5000

10-Day Weather Forecast

No radar image for this location.
×

Almanac

Astronomy

Jul. 23, 2016 Rise Set
Actual Time
Civil Twilight
Nautical Twilight
Astronomical Twilight
Moon
Length of Visible Light
Length of Day
Tomorrow will be .
, % of the Moon is Illuminated

Today's Extremes

Country Highs Country Lows

Community

WunderPhotos

Upload Photos

1,926,790 photos uploaded!

WunderBlog® & News

Nearby

Air Quality

  Air Quality AQ Index Pollutant
Not available.

Snow Depth

Station Depth Elevation

Earthquake Activity

City Distance Mag. Time & Date
Minimum magnitude displayed is 2.5.

Coastal Water Temperatures

Place Temperature

Stations

Nearby Weather Stations

Station Location Temp. Windchill Dew Point Humidity Wind Precip. Elev Updated Type